sensor_id;sensor_type;location;lat;lon;timestamp;pressure;altitude;pressure_sealevel;temperature;humidity
36524;BME280;66329;46.796;9.824;2023-02-14T00:00:50;86025.48;;;23.97;6.12
36524;BME280;66329;46.796;9.824;2023-02-14T00:03:17;86028.45;;;23.99;6.19
36524;BME280;66329;46.796;9.824;2023-02-14T00:05:45;86026.62;;;23.93;6.16
36524;BME280;66329;46.796;9.824;2023-02-14T00:08:12;86025.57;;;23.91;6.19
36524;BME280;66329;46.796;9.824;2023-02-14T00:10:39;86024.91;;;24.31;6.19
36524;BME280;66329;46.796;9.824;2023-02-14T00:13:06;86025.51;;;23.85;6.17
36524;BME280;66329;46.796;9.824;2023-02-14T00:15:33;86025.57;;;23.84;6.17
36524;BME280;66329;46.796;9.824;2023-02-14T00:18:00;86024.77;;;24.23;6.16
36524;BME280;66329;46.796;9.824;2023-02-14T00:20:28;86024.88;;;23.78;6.17
36524;BME280;66329;46.796;9.824;2023-02-14T00:22:55;86022.65;;;23.78;6.07
36524;BME280;66329;46.796;9.824;2023-02-14T00:25:22;86025.63;;;23.77;6.17
36524;BME280;66329;46.796;9.824;2023-02-14T00:27:50;86025.72;;;23.77;6.10
36524;BME280;66329;46.796;9.824;2023-02-14T00:30:17;86031.79;;;24.20;6.14
36524;BME280;66329;46.796;9.824;2023-02-14T00:32:44;86031.82;;;23.77;6.17
36524;BME280;66329;46.796;9.824;2023-02-14T00:35:11;86032.92;;;23.77;6.16
36524;BME280;66329;46.796;9.824;2023-02-14T00:37:38;86035.45;;;23.78;6.12
36524;BME280;66329;46.796;9.824;2023-02-14T00:40:07;86035.30;;;23.75;6.14
36524;BME280;66329;46.796;9.824;2023-02-14T00:42:34;86038.79;;;23.75;6.09
36524;BME280;66329;46.796;9.824;2023-02-14T00:45:02;86041.26;;;23.77;6.11
36524;BME280;66329;46.796;9.824;2023-02-14T00:47:29;86043.12;;;24.21;6.12
36524;BME280;66329;46.796;9.824;2023-02-14T00:49:56;86040.25;;;23.82;6.11
36524;BME280;66329;46.796;9.824;2023-02-14T00:52:23;86041.20;;;23.84;6.06
36524;BME280;66329;46.796;9.824;2023-02-14T00:54:50;86041.70;;;23.83;6.09
36524;BME280;66329;46.796;9.824;2023-02-14T00:57:18;86041.37;;;24.27;6.03
36524;BME280;66329;46.796;9.824;2023-02-14T00:59:46;86041.02;;;23.84;6.04
36524;BME280;66329;46.796;9.824;2023-02-14T01:02:14;86043.87;;;23.85;5.99
36524;BME280;66329;46.796;9.824;2023-02-14T01:04:42;86046.70;;;23.89;5.98
36524;BME280;66329;46.796;9.824;2023-02-14T01:07:10;86046.65;;;24.28;5.97
36524;BME280;66329;46.796;9.824;2023-02-14T01:09:37;86044.93;;;23.84;5.98
36524;BME280;66329;46.796;9.824;2023-02-14T01:12:05;86043.87;;;23.83;5.95
36524;BME280;66329;46.796;9.824;2023-02-14T01:14:33;86041.17;;;24.26;5.91
36524;BME280;66329;46.796;9.824;2023-02-14T01:17:00;86041.36;;;23.83;5.96
36524;BME280;66329;46.796;9.824;2023-02-14T01:19:28;86038.88;;;23.82;5.97
36524;BME280;66329;46.796;9.824;2023-02-14T01:21:56;86034.22;;;23.80;5.96
36524;BME280;66329;46.796;9.824;2023-02-14T01:24:24;86030.92;;;23.81;5.95
36524;BME280;66329;46.796;9.824;2023-02-14T01:26:51;86029.24;;;23.77;5.99
36524;BME280;66329;46.796;9.824;2023-02-14T01:29:18;86029.72;;;24.12;6.02
36524;BME280;66329;46.796;9.824;2023-02-14T01:31:45;86030.06;;;24.62;6.03
36524;BME280;66329;46.796;9.824;2023-02-14T01:34:13;86031.86;;;23.73;6.00
36524;BME280;66329;46.796;9.824;2023-02-14T01:36:40;86029.85;;;23.75;5.99
36524;BME280;66329;46.796;9.824;2023-02-14T01:39:11;86028.51;;;24.22;5.98
36524;BME280;66329;46.796;9.824;2023-02-14T01:41:40;86022.42;;;23.80;5.98
36524;BME280;66329;46.796;9.824;2023-02-14T01:44:57;86024.03;;;24.24;5.97
36524;BME280;66329;46.796;9.824;2023-02-14T01:47:27;86024.32;;;23.66;6.03
36524;BME280;66329;46.796;9.824;2023-02-14T01:50:00;86018.93;;;23.76;5.95
36524;BME280;66329;46.796;9.824;2023-02-14T01:52:33;86015.74;;;23.80;5.92
36524;BME280;66329;46.796;9.824;2023-02-14T01:55:05;86013.10;;;23.81;5.88
36524;BME280;66329;46.796;9.824;2023-02-14T01:57:37;86009.47;;;23.83;5.89
36524;BME280;66329;46.796;9.824;2023-02-14T02:00:08;86008.73;;;23.82;5.86
36524;BME280;66329;46.796;9.824;2023-02-14T02:02:37;86006.45;;;23.83;5.88
36524;BME280;66329;46.796;9.824;2023-02-14T02:05:05;86007.07;;;23.82;5.85
36524;BME280;66329;46.796;9.824;2023-02-14T02:07:33;86005.49;;;23.83;5.81
36524;BME280;66329;46.796;9.824;2023-02-14T02:10:05;86005.12;;;23.79;5.75
36524;BME280;66329;46.796;9.824;2023-02-14T02:12:34;86003.57;;;24.23;5.75
36524;BME280;66329;46.796;9.824;2023-02-14T02:15:03;86008.86;;;23.80;5.79
36524;BME280;66329;46.796;9.824;2023-02-14T02:17:42;86006.49;;;23.79;5.77
36524;BME280;66329;46.796;9.824;2023-02-14T02:20:38;86001.55;;;23.75;5.80
36524;BME280;66329;46.796;9.824;2023-02-14T02:24:50;85998.56;;;25.32;5.77
36524;BME280;66329;46.796;9.824;2023-02-14T02:27:37;85998.60;;;23.87;5.88
36524;BME280;66329;46.796;9.824;2023-02-14T02:31:03;85996.11;;;23.94;5.90
36524;BME280;66329;46.796;9.824;2023-02-14T02:34:05;85993.11;;;23.86;5.86
36524;BME280;66329;46.796;9.824;2023-02-14T02:36:50;85993.97;;;23.41;5.92
36524;BME280;66329;46.796;9.824;2023-02-14T02:39:33;85990.96;;;23.91;5.88
36524;BME280;66329;46.796;9.824;2023-02-14T02:42:09;85989.15;;;23.51;5.86
36524;BME280;66329;46.796;9.824;2023-02-14T02:44:46;85985.23;;;23.93;5.86
36524;BME280;66329;46.796;9.824;2023-02-14T02:47:25;85982.94;;;23.55;5.89
36524;BME280;66329;46.796;9.824;2023-02-14T02:50:08;85981.82;;;23.57;5.85
36524;BME280;66329;46.796;9.824;2023-02-14T02:52:42;85978.96;;;24.05;5.88
36524;BME280;66329;46.796;9.824;2023-02-14T02:55:16;85973.07;;;23.66;5.85
36524;BME280;66329;46.796;9.824;2023-02-14T02:57:48;85967.42;;;23.72;5.79
36524;BME280;66329;46.796;9.824;2023-02-14T03:00:20;85967.66;;;23.68;5.83
36524;BME280;66329;46.796;9.824;2023-02-14T03:02:51;85967.36;;;23.69;5.81
36524;BME280;66329;46.796;9.824;2023-02-14T03:05:22;85963.94;;;24.07;5.77
36524;BME280;66329;46.796;9.824;2023-02-14T03:07:50;85964.50;;;23.70;5.76
36524;BME280;66329;46.796;9.824;2023-02-14T03:10:20;85968.64;;;23.70;5.71
36524;BME280;66329;46.796;9.824;2023-02-14T03:13:32;85966.97;;;24.13;5.75
36524;BME280;66329;46.796;9.824;2023-02-14T03:16:28;85967.75;;;23.58;5.78
36524;BME280;66329;46.796;9.824;2023-02-14T03:19:13;85965.71;;;23.57;5.67
36524;BME280;66329;46.796;9.824;2023-02-14T03:21:51;85961.71;;;24.51;5.69
36524;BME280;66329;46.796;9.824;2023-02-14T03:24:25;85960.68;;;24.06;5.72
36524;BME280;66329;46.796;9.824;2023-02-14T03:27:01;85961.74;;;23.65;5.71
36524;BME280;66329;46.796;9.824;2023-02-14T03:29:36;85959.59;;;23.66;5.67
36524;BME280;66329;46.796;9.824;2023-02-14T03:32:13;85960.31;;;23.66;5.72
36524;BME280;66329;46.796;9.824;2023-02-14T03:34:48;85957.40;;;24.05;5.68
36524;BME280;66329;46.796;9.824;2023-02-14T03:37:23;85954.86;;;23.65;5.67
36524;BME280;66329;46.796;9.824;2023-02-14T03:39:58;85956.04;;;23.64;5.74
36524;BME280;66329;46.796;9.824;2023-02-14T03:42:31;85955.96;;;24.01;5.79
36524;BME280;66329;46.796;9.824;2023-02-14T03:45:04;85956.14;;;24.03;5.87
36524;BME280;66329;46.796;9.824;2023-02-14T03:47:35;85953.91;;;23.62;5.81
36524;BME280;66329;46.796;9.824;2023-02-14T03:50:09;85952.78;;;23.68;5.77
36524;BME280;66329;46.796;9.824;2023-02-14T03:52:38;85950.70;;;23.70;5.70
36524;BME280;66329;46.796;9.824;2023-02-14T03:55:07;85947.79;;;24.61;5.72
36524;BME280;66329;46.796;9.824;2023-02-14T03:57:41;85944.40;;;24.14;5.70
36524;BME280;66329;46.796;9.824;2023-02-14T04:00:14;85942.75;;;23.68;5.69
36524;BME280;66329;46.796;9.824;2023-02-14T04:02:44;85941.89;;;23.71;5.69
36524;BME280;66329;46.796;9.824;2023-02-14T04:05:14;85942.41;;;23.73;5.65
36524;BME280;66329;46.796;9.824;2023-02-14T04:07:45;85946.20;;;23.76;5.66
36524;BME280;66329;46.796;9.824;2023-02-14T04:10:14;85949.89;;;23.77;5.66
36524;BME280;66329;46.796;9.824;2023-02-14T04:12:41;85949.68;;;23.78;5.64
36524;BME280;66329;46.796;9.824;2023-02-14T04:15:08;85950.40;;;24.15;5.61
36524;BME280;66329;46.796;9.824;2023-02-14T04:17:36;85952.55;;;24.18;5.63
36524;BME280;66329;46.796;9.824;2023-02-14T04:20:04;85949.02;;;24.18;5.63
36524;BME280;66329;46.796;9.824;2023-02-14T04:22:32;85945.98;;;23.76;5.62
36524;BME280;66329;46.796;9.824;2023-02-14T04:24:59;85944.05;;;24.21;5.62
36524;BME280;66329;46.796;9.824;2023-02-14T04:27:26;85942.20;;;24.19;5.59
36524;BME280;66329;46.796;9.824;2023-02-14T04:29:53;85940.62;;;24.19;5.61
36524;BME280;66329;46.796;9.824;2023-02-14T04:32:21;85937.98;;;23.81;5.60
36524;BME280;66329;46.796;9.824;2023-02-14T04:34:49;85940.27;;;23.79;5.61
36524;BME280;66329;46.796;9.824;2023-02-14T04:37:18;85940.48;;;24.17;5.57
36524;BME280;66329;46.796;9.824;2023-02-14T04:39:46;85940.97;;;23.76;5.59
36524;BME280;66329;46.796;9.824;2023-02-14T04:42:14;85941.68;;;23.80;5.59
36524;BME280;66329;46.796;9.824;2023-02-14T04:44:42;85939.99;;;23.81;5.56
36524;BME280;66329;46.796;9.824;2023-02-14T04:47:09;85937.59;;;23.83;5.53
36524;BME280;66329;46.796;9.824;2023-02-14T04:49:36;85937.39;;;24.24;5.55
36524;BME280;66329;46.796;9.824;2023-02-14T04:52:04;85938.09;;;23.82;5.54
36524;BME280;66329;46.796;9.824;2023-02-14T04:54:32;85937.86;;;24.24;5.54
36524;BME280;66329;46.796;9.824;2023-02-14T04:56:59;85935.11;;;24.24;5.52
36524;BME280;66329;46.796;9.824;2023-02-14T04:59:26;85935.73;;;24.72;5.57
36524;BME280;66329;46.796;9.824;2023-02-14T05:01:53;85935.69;;;23.77;5.53
36524;BME280;66329;46.796;9.824;2023-02-14T05:04:21;85937.75;;;23.78;5.55
36524;BME280;66329;46.796;9.824;2023-02-14T05:06:48;85936.07;;;23.78;5.51
36524;BME280;66329;46.796;9.824;2023-02-14T05:09:15;85932.74;;;24.20;5.51
36524;BME280;66329;46.796;9.824;2023-02-14T05:11:43;85930.82;;;24.17;5.54
36524;BME280;66329;46.796;9.824;2023-02-14T05:14:10;85932.26;;;23.75;5.52
36524;BME280;66329;46.796;9.824;2023-02-14T05:16:37;85932.62;;;23.76;5.49
36524;BME280;66329;46.796;9.824;2023-02-14T05:19:04;85936.27;;;23.77;5.48
36524;BME280;66329;46.796;9.824;2023-02-14T05:21:31;85936.94;;;23.80;5.49
36524;BME280;66329;46.796;9.824;2023-02-14T05:23:59;85938.19;;;24.19;5.59
36524;BME280;66329;46.796;9.824;2023-02-14T05:26:26;85940.43;;;23.74;5.60
36524;BME280;66329;46.796;9.824;2023-02-14T05:28:54;85939.34;;;23.73;5.50
36524;BME280;66329;46.796;9.824;2023-02-14T05:31:21;85935.89;;;23.71;5.49
36524;BME280;66329;46.796;9.824;2023-02-14T05:33:49;85934.19;;;24.07;5.54
36524;BME280;66329;46.796;9.824;2023-02-14T05:36:16;85932.43;;;23.64;5.54
36524;BME280;66329;46.796;9.824;2023-02-14T05:38:43;85931.15;;;23.63;5.52
36524;BME280;66329;46.796;9.824;2023-02-14T05:41:10;85932.12;;;23.64;5.44
36524;BME280;66329;46.796;9.824;2023-02-14T05:43:37;85929.67;;;23.64;5.39
36524;BME280;66329;46.796;9.824;2023-02-14T05:46:05;85931.29;;;24.06;5.32
36524;BME280;66329;46.796;9.824;2023-02-14T05:48:32;85932.92;;;24.10;5.31
36524;BME280;66329;46.796;9.824;2023-02-14T05:51:02;85932.06;;;24.14;5.23
36524;BME280;66329;46.796;9.824;2023-02-14T05:53:30;85931.92;;;23.78;5.26
36524;BME280;66329;46.796;9.824;2023-02-14T05:55:57;85931.73;;;23.84;5.32
36524;BME280;66329;46.796;9.824;2023-02-14T05:58:24;85934.24;;;23.76;5.40
36524;BME280;66329;46.796;9.824;2023-02-14T06:00:51;85932.61;;;24.23;5.34
36524;BME280;66329;46.796;9.824;2023-02-14T06:03:18;85929.08;;;23.92;5.33
36524;BME280;66329;46.796;9.824;2023-02-14T06:05:45;85931.20;;;23.88;5.45
36524;BME280;66329;46.796;9.824;2023-02-14T06:08:12;85930.51;;;23.92;5.61
36524;BME280;66329;46.796;9.824;2023-02-14T06:10:40;85932.79;;;24.05;5.59
36524;BME280;66329;46.796;9.824;2023-02-14T06:13:07;85934.44;;;24.10;5.55
36524;BME280;66329;46.796;9.824;2023-02-14T06:15:35;85936.21;;;24.12;5.59
36524;BME280;66329;46.796;9.824;2023-02-14T06:18:04;85938.78;;;24.20;5.62
36524;BME280;66329;46.796;9.824;2023-02-14T06:20:31;85940.80;;;24.30;5.59
36524;BME280;66329;46.796;9.824;2023-02-14T06:22:58;85943.08;;;24.41;5.57
36524;BME280;66329;46.796;9.824;2023-02-14T06:25:25;85945.38;;;24.43;5.54
36524;BME280;66329;46.796;9.824;2023-02-14T06:27:55;85945.68;;;24.50;5.51
36524;BME280;66329;46.796;9.824;2023-02-14T06:30:24;85944.60;;;24.14;5.91
36524;BME280;66329;46.796;9.824;2023-02-14T06:32:52;85944.56;;;23.66;6.37
36524;BME280;66329;46.796;9.824;2023-02-14T06:35:19;85945.12;;;24.35;6.52
36524;BME280;66329;46.796;9.824;2023-02-14T06:37:46;85948.39;;;23.74;5.95
36524;BME280;66329;46.796;9.824;2023-02-14T06:40:14;85949.90;;;23.86;5.97
36524;BME280;66329;46.796;9.824;2023-02-14T06:42:44;85950.97;;;24.37;5.91
36524;BME280;66329;46.796;9.824;2023-02-14T06:45:12;85954.10;;;24.43;5.87
36524;BME280;66329;46.796;9.824;2023-02-14T06:47:41;85952.55;;;24.44;5.91
36524;BME280;66329;46.796;9.824;2023-02-14T06:50:09;85955.06;;;24.06;5.93
36524;BME280;66329;46.796;9.824;2023-02-14T06:52:38;85958.33;;;24.14;5.87
36524;BME280;66329;46.796;9.824;2023-02-14T06:55:06;85958.70;;;24.25;5.83
36524;BME280;66329;46.796;9.824;2023-02-14T06:57:33;85958.34;;;24.30;5.94
36524;BME280;66329;46.796;9.824;2023-02-14T07:00:01;85959.82;;;24.32;6.05
36524;BME280;66329;46.796;9.824;2023-02-14T07:02:28;85958.06;;;24.34;6.02
36524;BME280;66329;46.796;9.824;2023-02-14T07:04:55;85960.43;;;24.34;6.01
36524;BME280;66329;46.796;9.824;2023-02-14T07:07:22;85962.49;;;24.37;6.07
36524;BME280;66329;46.796;9.824;2023-02-14T07:09:49;85960.96;;;24.42;6.14
36524;BME280;66329;46.796;9.824;2023-02-14T07:12:16;85962.14;;;24.41;6.21
36524;BME280;66329;46.796;9.824;2023-02-14T07:14:43;85963.11;;;25.37;6.19
36524;BME280;66329;46.796;9.824;2023-02-14T07:17:10;85965.30;;;24.17;6.35
36524;BME280;66329;46.796;9.824;2023-02-14T07:19:37;85964.40;;;24.64;6.31
36524;BME280;66329;46.796;9.824;2023-02-14T07:22:04;85963.64;;;24.30;6.24
36524;BME280;66329;46.796;9.824;2023-02-14T07:24:32;85962.89;;;23.82;6.36
36524;BME280;66329;46.796;9.824;2023-02-14T07:26:59;85963.23;;;24.33;6.40
36524;BME280;66329;46.796;9.824;2023-02-14T07:29:26;85967.64;;;23.46;6.44
36524;BME280;66329;46.796;9.824;2023-02-14T07:31:53;85963.49;;;23.92;6.46
36524;BME280;66329;46.796;9.824;2023-02-14T07:34:20;85963.56;;;24.44;6.44
36524;BME280;66329;46.796;9.824;2023-02-14T07:36:48;85963.59;;;24.51;6.44
36524;BME280;66329;46.796;9.824;2023-02-14T07:39:15;85962.99;;;24.91;6.38
36524;BME280;66329;46.796;9.824;2023-02-14T07:41:42;85957.65;;;24.54;6.33
36524;BME280;66329;46.796;9.824;2023-02-14T07:44:09;85959.50;;;24.06;6.41
36524;BME280;66329;46.796;9.824;2023-02-14T07:46:36;85955.30;;;24.02;6.44
36524;BME280;66329;46.796;9.824;2023-02-14T07:49:03;85954.97;;;24.52;6.39
36524;BME280;66329;46.796;9.824;2023-02-14T07:51:30;85956.02;;;24.01;6.38
36524;BME280;66329;46.796;9.824;2023-02-14T07:53:58;85960.44;;;24.58;6.45
36524;BME280;66329;46.796;9.824;2023-02-14T07:56:26;85957.85;;;24.58;6.46
36524;BME280;66329;46.796;9.824;2023-02-14T07:58:53;85958.89;;;24.60;6.48
36524;BME280;66329;46.796;9.824;2023-02-14T08:01:20;85960.87;;;24.97;6.45
36524;BME280;66329;46.796;9.824;2023-02-14T08:03:47;85961.41;;;24.53;6.53
36524;BME280;66329;46.796;9.824;2023-02-14T08:06:20;85967.93;;;25.47;6.59
36524;BME280;66329;46.796;9.824;2023-02-14T08:08:48;85960.11;;;24.50;6.43
36524;BME280;66329;46.796;9.824;2023-02-14T08:11:14;85960.02;;;24.49;6.58
36524;BME280;66329;46.796;9.824;2023-02-14T08:13:42;85958.27;;;24.02;6.94
36524;BME280;66329;46.796;9.824;2023-02-14T08:16:09;85957.61;;;24.07;7.01
36524;BME280;66329;46.796;9.824;2023-02-14T08:18:37;85959.30;;;24.95;7.19
36524;BME280;66329;46.796;9.824;2023-02-14T08:21:08;85959.05;;;24.54;7.25
36524;BME280;66329;46.796;9.824;2023-02-14T08:23:36;85964.98;;;24.33;6.85
36524;BME280;66329;46.796;9.824;2023-02-14T08:26:03;85965.49;;;24.37;7.17
36524;BME280;66329;46.796;9.824;2023-02-14T08:28:32;85963.30;;;24.93;7.19
36524;BME280;66329;46.796;9.824;2023-02-14T08:31:00;85959.71;;;24.60;7.29
36524;BME280;66329;46.796;9.824;2023-02-14T08:33:28;85957.50;;;24.56;7.15
36524;BME280;66329;46.796;9.824;2023-02-14T08:35:55;85956.52;;;24.60;7.33
36524;BME280;66329;46.796;9.824;2023-02-14T08:38:23;85957.21;;;25.08;7.38
36524;BME280;66329;46.796;9.824;2023-02-14T08:40:50;85954.42;;;24.64;7.32
36524;BME280;66329;46.796;9.824;2023-02-14T08:43:18;85955.89;;;25.15;7.39
36524;BME280;66329;46.796;9.824;2023-02-14T08:45:45;85956.94;;;24.80;7.39
36524;BME280;66329;46.796;9.824;2023-02-14T08:48:12;85956.88;;;24.80;7.39
36524;BME280;66329;46.796;9.824;2023-02-14T08:50:40;85955.23;;;24.88;7.64
36524;BME280;66329;46.796;9.824;2023-02-14T08:53:10;85949.47;;;24.85;7.55
36524;BME280;66329;46.796;9.824;2023-02-14T08:55:38;85949.64;;;25.29;7.57
36524;BME280;66329;46.796;9.824;2023-02-14T08:58:06;85947.29;;;24.81;7.00
36524;BME280;66329;46.796;9.824;2023-02-14T09:00:34;85948.30;;;24.76;7.22
36524;BME280;66329;46.796;9.824;2023-02-14T09:03:01;85948.69;;;24.85;7.45
36524;BME280;66329;46.796;9.824;2023-02-14T09:05:28;85948.37;;;23.88;7.21
36524;BME280;66329;46.796;9.824;2023-02-14T09:07:55;85948.15;;;24.70;7.13
36524;BME280;66329;46.796;9.824;2023-02-14T09:10:24;85949.75;;;24.55;6.93
36524;BME280;66329;46.796;9.824;2023-02-14T09:12:51;85947.92;;;24.55;6.77
36524;BME280;66329;46.796;9.824;2023-02-14T09:15:19;85943.03;;;24.73;6.51
36524;BME280;66329;46.796;9.824;2023-02-14T09:17:46;85940.00;;;24.23;6.98
36524;BME280;66329;46.796;9.824;2023-02-14T09:20:21;85937.24;;;23.84;6.73
36524;BME280;66329;46.796;9.824;2023-02-14T09:22:48;85937.83;;;24.43;6.68
36524;BME280;66329;46.796;9.824;2023-02-14T09:25:15;85934.47;;;24.53;6.62
36524;BME280;66329;46.796;9.824;2023-02-14T09:27:43;85931.38;;;25.05;6.60
36524;BME280;66329;46.796;9.824;2023-02-14T09:30:13;85933.68;;;24.64;6.96
36524;BME280;66329;46.796;9.824;2023-02-14T09:32:41;85935.61;;;24.66;7.47
36524;BME280;66329;46.796;9.824;2023-02-14T09:35:08;85935.33;;;24.22;7.49
36524;BME280;66329;46.796;9.824;2023-02-14T09:37:36;85933.23;;;24.30;7.64
36524;BME280;66329;46.796;9.824;2023-02-14T09:40:04;85932.21;;;24.01;7.59
36524;BME280;66329;46.796;9.824;2023-02-14T09:42:45;85928.59;;;24.95;7.51
36524;BME280;66329;46.796;9.824;2023-02-14T09:45:17;85926.97;;;24.34;6.72
36524;BME280;66329;46.796;9.824;2023-02-14T09:47:48;85926.04;;;24.92;7.25
36524;BME280;66329;46.796;9.824;2023-02-14T09:50:23;85927.02;;;24.45;7.51
36524;BME280;66329;46.796;9.824;2023-02-14T09:52:55;85925.68;;;24.50;7.76
36524;BME280;66329;46.796;9.824;2023-02-14T09:55:26;85927.92;;;24.89;7.88
36524;BME280;66329;46.796;9.824;2023-02-14T09:58:03;85928.34;;;24.42;7.74
36524;BME280;66329;46.796;9.824;2023-02-14T10:00:36;85925.92;;;25.21;7.65
36524;BME280;66329;46.796;9.824;2023-02-14T10:03:51;85923.39;;;24.73;7.33
36524;BME280;66329;46.796;9.824;2023-02-14T10:06:40;85924.33;;;24.65;7.57
36524;BME280;66329;46.796;9.824;2023-02-14T10:09:26;85924.23;;;24.54;7.69
36524;BME280;66329;46.796;9.824;2023-02-14T10:11:58;85925.41;;;24.33;7.11
36524;BME280;66329;46.796;9.824;2023-02-14T10:14:34;85920.70;;;24.48;7.14
36524;BME280;66329;46.796;9.824;2023-02-14T10:17:06;85916.67;;;24.49;7.14
36524;BME280;66329;46.796;9.824;2023-02-14T10:19:38;85914.77;;;24.56;7.09
36524;BME280;66329;46.796;9.824;2023-02-14T10:22:12;85911.52;;;24.62;7.12
36524;BME280;66329;46.796;9.824;2023-02-14T10:24:44;85909.75;;;23.81;7.12
36524;BME280;66329;46.796;9.824;2023-02-14T10:27:22;85908.17;;;24.84;6.83
36524;BME280;66329;46.796;9.824;2023-02-14T10:29:52;85906.09;;;24.91;6.81
36524;BME280;66329;46.796;9.824;2023-02-14T10:32:25;85905.51;;;24.40;6.64
36524;BME280;66329;46.796;9.824;2023-02-14T10:34:56;85901.58;;;24.44;6.72
36524;BME280;66329;46.796;9.824;2023-02-14T10:37:43;85901.31;;;24.58;6.85
36524;BME280;66329;46.796;9.824;2023-02-14T10:40:32;85901.43;;;24.18;7.02
36524;BME280;66329;46.796;9.824;2023-02-14T10:43:12;85897.86;;;25.18;7.01
36524;BME280;66329;46.796;9.824;2023-02-14T10:45:46;85896.73;;;24.29;7.12
36524;BME280;66329;46.796;9.824;2023-02-14T10:48:24;85892.58;;;24.55;7.40
36524;BME280;66329;46.796;9.824;2023-02-14T10:50:59;85888.72;;;24.73;7.24
36524;BME280;66329;46.796;9.824;2023-02-14T10:53:34;85884.87;;;24.93;7.02
36524;BME280;66329;46.796;9.824;2023-02-14T10:56:14;85882.40;;;24.47;6.84
36524;BME280;66329;46.796;9.824;2023-02-14T10:58:45;85879.51;;;24.57;6.74
36524;BME280;66329;46.796;9.824;2023-02-14T11:01:16;85877.16;;;25.12;6.61
36524;BME280;66329;46.796;9.824;2023-02-14T11:03:51;85874.72;;;25.09;6.50
36524;BME280;66329;46.796;9.824;2023-02-14T11:06:19;85871.36;;;24.52;6.41
36524;BME280;66329;46.796;9.824;2023-02-14T11:08:46;85866.82;;;24.95;6.36
36524;BME280;66329;46.796;9.824;2023-02-14T11:11:18;85860.83;;;24.48;6.33
36524;BME280;66329;46.796;9.824;2023-02-14T11:13:47;85858.79;;;24.95;6.29
36524;BME280;66329;46.796;9.824;2023-02-14T11:16:27;85855.79;;;24.92;6.32
36524;BME280;66329;46.796;9.824;2023-02-14T11:19:08;85852.06;;;24.39;6.49
36524;BME280;66329;46.796;9.824;2023-02-14T11:21:37;85852.87;;;24.92;6.49
36524;BME280;66329;46.796;9.824;2023-02-14T11:24:16;85847.96;;;24.94;6.44
36524;BME280;66329;46.796;9.824;2023-02-14T11:26:46;85844.84;;;24.38;6.52
36524;BME280;66329;46.796;9.824;2023-02-14T11:29:17;85843.09;;;24.32;6.57
36524;BME280;66329;46.796;9.824;2023-02-14T11:31:47;85838.48;;;24.76;6.47
36524;BME280;66329;46.796;9.824;2023-02-14T11:34:29;85831.15;;;24.69;6.45
36524;BME280;66329;46.796;9.824;2023-02-14T11:36:57;85828.54;;;24.64;6.33
36524;BME280;66329;46.796;9.824;2023-02-14T11:39:29;85825.67;;;24.65;6.26
36524;BME280;66329;46.796;9.824;2023-02-14T11:42:00;85822.45;;;24.60;6.25
36524;BME280;66329;46.796;9.824;2023-02-14T11:44:29;85819.14;;;24.10;6.15
36524;BME280;66329;46.796;9.824;2023-02-14T11:47:15;85817.94;;;24.61;6.10
36524;BME280;66329;46.796;9.824;2023-02-14T11:49:54;85814.73;;;24.52;6.08
36524;BME280;66329;46.796;9.824;2023-02-14T11:52:23;85814.41;;;24.48;6.10
36524;BME280;66329;46.796;9.824;2023-02-14T11:54:52;85813.54;;;24.48;6.10
36524;BME280;66329;46.796;9.824;2023-02-14T11:57:23;85810.43;;;24.90;6.12
36524;BME280;66329;46.796;9.824;2023-02-14T11:59:54;85808.39;;;24.50;6.08
36524;BME280;66329;46.796;9.824;2023-02-14T12:02:27;85803.98;;;24.47;6.04
36524;BME280;66329;46.796;9.824;2023-02-14T12:04:58;85802.41;;;23.96;6.06
36524;BME280;66329;46.796;9.824;2023-02-14T12:07:30;85799.10;;;24.94;5.92
36524;BME280;66329;46.796;9.824;2023-02-14T12:10:15;85794.60;;;24.52;5.87
36524;BME280;66329;46.796;9.824;2023-02-14T12:12:55;85797.32;;;24.94;5.87
36524;BME280;66329;46.796;9.824;2023-02-14T12:15:26;85791.98;;;24.51;6.07
36524;BME280;66329;46.796;9.824;2023-02-14T12:18:00;85792.81;;;24.64;5.91
36524;BME280;66329;46.796;9.824;2023-02-14T12:20:37;85789.32;;;24.73;5.93
36524;BME280;66329;46.796;9.824;2023-02-14T12:23:11;85787.92;;;24.75;5.93
36524;BME280;66329;46.796;9.824;2023-02-14T12:25:46;85789.77;;;23.51;6.02
36524;BME280;66329;46.796;9.824;2023-02-14T12:28:28;85784.09;;;23.10;5.72
36524;BME280;66329;46.796;9.824;2023-02-14T12:30:57;85784.77;;;23.50;5.34
36524;BME280;66329;46.796;9.824;2023-02-14T12:33:25;85781.57;;;23.09;5.18
36524;BME280;66329;46.796;9.824;2023-02-14T12:36:00;85778.57;;;22.65;5.46
36524;BME280;66329;46.796;9.824;2023-02-14T12:38:40;85778.90;;;22.51;5.02
36524;BME280;66329;46.796;9.824;2023-02-14T12:41:22;85774.67;;;22.93;5.10
36524;BME280;66329;46.796;9.824;2023-02-14T12:43:52;85774.06;;;21.64;5.23
36524;BME280;66329;46.796;9.824;2023-02-14T12:46:28;85768.90;;;22.57;5.18
36524;BME280;66329;46.796;9.824;2023-02-14T12:51:16;85765.05;;;24.26;5.47
36524;BME280;66329;46.796;9.824;2023-02-14T12:53:56;85757.55;;;22.76;5.15
36524;BME280;66329;46.796;9.824;2023-02-14T12:56:35;85753.73;;;22.74;6.27
36524;BME280;66329;46.796;9.824;2023-02-14T12:59:17;85747.34;;;23.25;6.23
36524;BME280;66329;46.796;9.824;2023-02-14T13:01:59;85746.50;;;23.87;6.21
36524;BME280;66329;46.796;9.824;2023-02-14T13:04:43;85741.04;;;24.29;5.86
36524;BME280;66329;46.796;9.824;2023-02-14T13:07:21;85737.44;;;23.77;5.73
36524;BME280;66329;46.796;9.824;2023-02-14T13:09:57;85736.89;;;24.07;5.80
36524;BME280;66329;46.796;9.824;2023-02-14T13:12:32;85733.35;;;24.36;5.80
36524;BME280;66329;46.796;9.824;2023-02-14T13:15:10;85732.25;;;23.68;5.84
36524;BME280;66329;46.796;9.824;2023-02-14T13:17:45;85730.21;;;24.78;5.93
36524;BME280;66329;46.796;9.824;2023-02-14T13:20:28;85728.91;;;25.02;5.87
36524;BME280;66329;46.796;9.824;2023-02-14T13:23:02;85726.40;;;25.08;5.93
36524;BME280;66329;46.796;9.824;2023-02-14T13:25:35;85719.93;;;25.16;5.88
36524;BME280;66329;46.796;9.824;2023-02-14T13:28:10;85719.99;;;24.70;5.83
36524;BME280;66329;46.796;9.824;2023-02-14T13:30:39;85716.09;;;24.34;5.94
36524;BME280;66329;46.796;9.824;2023-02-14T13:33:12;85717.89;;;24.44;5.98
36524;BME280;66329;46.796;9.824;2023-02-14T13:35:41;85718.32;;;24.43;6.10